Time;durP1;ratioP1;P1;durP2;ratioP2;P2;SDS_P1;SDS_P2;PMS_P1;PMS_P2;Temp;Humidity;BMP_temperature;BMP_pressure;BME280_temperature;BME280_humidity;BME280_pressure;Samples;Min_cycle;Max_cycle;Signal;HPM_P1;HPM_P2
2023/08/30 00:00:18;;;;;;;6.57;5.75;;;12.70;99.90;;;12.38;100.00;96675.72;4996843;28;20379;-38
2023/08/30 00:02:44;;;;;;;5.80;5.28;;;12.80;99.90;;;12.34;100.00;96668.88;4993183;28;20490;-39
2023/08/30 00:05:10;;;;;;;6.25;5.65;;;12.80;99.90;;;12.40;100.00;96679.13;5000723;28;20038;-38
2023/08/30 00:07:36;;;;;;;7.70;6.90;;;12.80;99.90;;;12.40;100.00;96673.00;5000799;28;20485;-38
2023/08/30 00:10:03;;;;;;;8.82;6.15;;;12.80;99.90;;;12.31;100.00;96663.78;4995935;28;20068;-41
2023/08/30 00:12:29;;;;;;;6.18;5.60;;;12.80;99.90;;;12.39;100.00;96668.63;4999339;28;20474;-39
2023/08/30 00:14:56;;;;;;;6.22;5.63;;;12.80;99.90;;;12.39;100.00;96673.91;4997275;28;20049;-40
2023/08/30 00:17:22;;;;;;;7.53;6.40;;;12.80;99.90;;;12.39;100.00;96672.13;4990864;28;20025;-41
2023/08/30 00:19:48;;;;;;;5.65;5.05;;;12.80;99.90;;;12.37;100.00;96671.34;4998325;28;20065;-40
2023/08/30 00:22:14;;;;;;;6.95;6.18;;;12.80;99.90;;;12.29;100.00;96649.81;4996237;28;20058;-40
2023/08/30 00:24:40;;;;;;;8.45;6.00;;;12.70;99.90;;;12.36;100.00;96664.38;5000226;28;20032;-38
2023/08/30 00:27:06;;;;;;;6.40;5.85;;;12.70;99.90;;;12.25;100.00;96642.97;4993741;28;20030;-39
2023/08/30 00:29:31;;;;;;;5.82;5.30;;;12.70;99.90;;;12.33;100.00;96656.63;5002954;28;20485;-38
2023/08/30 00:31:57;;;;;;;7.03;5.80;;;12.70;99.90;;;12.32;100.00;96654.91;4992108;28;20026;-38
2023/08/30 00:34:23;;;;;;;6.32;5.72;;;12.70;99.90;;;12.31;100.00;96657.63;4995368;28;20030;-38
2023/08/30 00:36:48;;;;;;;6.75;6.10;;;12.70;99.90;;;12.30;100.00;96651.47;4993264;28;20037;-39
2023/08/30 00:39:14;;;;;;;5.95;5.35;;;12.70;99.90;;;12.30;100.00;96651.47;4996661;28;20108;-39
2023/08/30 00:41:40;;;;;;;6.90;6.20;;;12.70;99.90;;;12.31;100.00;96652.34;4997780;28;20530;-40
2023/08/30 00:44:06;;;;;;;8.90;6.25;;;12.70;99.90;;;12.29;100.00;96646.28;4997668;28;20118;-41
2023/08/30 00:46:33;;;;;;;7.05;6.30;;;12.70;99.90;;;12.22;100.00;96632.53;4997067;28;20041;-38
2023/08/30 00:49:01;;;;;;;7.10;6.40;;;12.60;99.90;;;12.23;100.00;96634.25;4994838;28;20441;-39
2023/08/30 00:51:27;;;;;;;6.90;6.30;;;12.60;99.90;;;12.26;100.00;96636.75;4998450;28;20029;-39
2023/08/30 00:53:55;;;;;;;6.97;6.38;;;12.60;99.90;;;12.28;100.00;96634.88;4996030;28;20026;-40
2023/08/30 00:56:21;;;;;;;6.18;5.68;;;12.60;99.90;;;12.19;100.00;96623.00;4996137;28;20522;-38
2023/08/30 00:58:48;;;;;;;7.13;6.45;;;12.60;99.90;;;12.27;100.00;96634.94;5010109;28;20193;-39
2023/08/30 01:01:16;;;;;;;7.03;6.32;;;12.60;99.90;;;12.27;100.00;96634.94;4988748;28;20034;-39
2023/08/30 01:03:42;;;;;;;6.82;5.95;;;12.60;99.90;;;12.25;100.00;96626.25;4998604;28;20034;-38
2023/08/30 01:06:08;;;;;;;6.75;5.90;;;12.60;99.90;;;12.25;100.00;96627.09;4997116;28;20033;-40
2023/08/30 01:08:35;;;;;;;7.30;6.60;;;12.60;99.90;;;12.23;100.00;96623.69;5000193;28;20469;-39
2023/08/30 01:11:28;;;;;;;6.80;6.07;;;12.60;99.90;;;12.20;100.00;96623.84;4987816;28;20029;-39
2023/08/30 01:14:02;;;;;;;8.00;5.65;;;12.60;99.90;;;12.17;100.00;96621.41;4993440;28;20026;-38
2023/08/30 01:16:28;;;;;;;7.38;5.55;;;12.50;99.90;;;12.10;100.00;96606.81;4993884;28;20041;-38
2023/08/30 01:18:56;;;;;;;5.82;5.30;;;12.50;99.90;;;12.10;100.00;96610.31;4995897;28;20253;-38
2023/08/30 01:21:51;;;;;;;8.80;5.25;;;12.40;99.90;;;12.02;100.00;96607.22;5012645;28;20400;-38
2023/08/30 01:24:30;;;;;;;6.53;4.82;;;12.40;99.90;;;11.96;100.00;96607.56;4999736;28;20025;-38
2023/08/30 01:27:12;;;;;;;6.03;5.43;;;12.40;99.90;;;11.92;100.00;96609.53;4994975;28;20256;-39
2023/08/30 01:29:43;;;;;;;5.70;5.20;;;12.30;99.90;;;11.87;100.00;96613.34;5003073;28;21813;-39
2023/08/30 01:32:09;;;;;;;5.68;5.18;;;12.20;99.90;;;11.81;100.00;96618.00;4995793;28;20037;-40
2023/08/30 01:34:41;;;;;;;6.65;5.97;;;12.20;99.90;;;11.76;100.00;96616.56;4996473;28;20242;-39
2023/08/30 01:37:08;;;;;;;7.20;5.37;;;12.10;99.90;;;11.70;100.00;96612.47;4995772;28;20293;-40
2023/08/30 01:39:38;;;;;;;5.32;4.82;;;12.10;99.90;;;11.66;100.00;96613.56;4996406;28;20469;-38
2023/08/30 01:42:05;;;;;;;6.78;5.70;;;12.10;99.90;;;11.60;100.00;96613.88;4996905;28;20060;-40
2023/08/30 01:44:31;;;;;;;5.60;5.00;;;12.00;99.90;;;11.54;100.00;96617.72;4996724;28;20037;-38
2023/08/30 01:46:58;;;;;;;5.88;5.28;;;12.00;99.90;;;11.48;100.00;96619.81;4996827;28;20449;-38
2023/08/30 01:49:25;;;;;;;5.60;5.10;;;11.90;99.90;;;11.41;100.00;96609.59;4998381;28;20048;-38
2023/08/30 01:51:51;;;;;;;6.85;5.45;;;11.80;99.90;;;11.38;100.00;96622.94;5013260;28;20037;-38
2023/08/30 01:54:19;;;;;;;6.43;5.45;;;11.80;99.90;;;11.37;100.00;96623.03;4991104;28;20542;-38
2023/08/30 01:56:46;;;;;;;10.18;5.40;;;11.80;99.90;;;11.26;100.00;96610.38;4989574;28;20045;-39
2023/08/30 01:59:12;;;;;;;6.20;5.60;;;11.70;99.90;;;11.27;100.00;96615.59;4994478;28;20039;-39
2023/08/30 02:01:38;;;;;;;5.35;4.85;;;11.70;99.90;;;11.30;100.00;96622.50;4994530;28;20100;-39
2023/08/30 02:04:04;;;;;;;6.20;5.60;;;11.70;99.90;;;11.11;100.00;96588.31;4998740;28;20042;-38
2023/08/30 02:06:42;;;;;;;6.65;5.68;;;11.70;99.90;;;11.31;100.00;96623.38;4997512;28;20369;-38
2023/08/30 02:09:27;;;;;;;5.82;5.32;;;11.70;99.90;;;11.29;100.00;96628.72;4994668;28;20598;-39
2023/08/30 02:11:55;;;;;;;6.13;5.28;;;11.70;99.90;;;11.31;100.00;96626.00;4990899;28;20549;-38
2023/08/30 02:14:22;;;;;;;8.48;6.28;;;11.70;99.90;;;11.26;100.00;96629.72;5000561;28;20029;-39
2023/08/30 02:16:48;;;;;;;6.22;5.63;;;11.70;99.90;;;11.26;100.00;96628.88;4992603;28;20338;-38
2023/08/30 02:19:20;;;;;;;6.28;5.68;;;11.70;99.90;;;11.25;100.00;96619.22;4995992;28;20482;-39
2023/08/30 02:21:47;;;;;;;6.28;5.53;;;11.70;99.90;;;11.27;100.00;96623.50;4999424;28;20530;-38
2023/08/30 02:24:13;;;;;;;6.60;5.32;;;11.70;99.90;;;11.27;100.00;96622.66;4998409;28;20095;-38
2023/08/30 02:26:39;;;;;;;9.18;6.03;;;11.70;99.90;;;11.27;100.00;96625.31;5000434;28;20038;-38
2023/08/30 02:29:04;;;;;;;6.15;5.55;;;11.70;99.90;;;11.15;100.00;96613.59;5001315;28;20034;-40
2023/08/30 02:31:30;;;;;;;6.22;5.63;;;11.70;99.90;;;11.21;100.00;96623.81;5000011;28;20041;-38
2023/08/30 02:33:56;;;;;;;7.40;5.53;;;11.60;99.90;;;11.21;100.00;96612.41;4999273;28;20033;-38
2023/08/30 02:36:22;;;;;;;6.00;5.50;;;11.60;99.90;;;11.04;100.00;96595.69;4998925;28;20515;-38
2023/08/30 02:38:47;;;;;;;5.75;5.25;;;11.60;99.90;;;11.16;100.00;96617.94;4992131;28;20064;-38
2023/08/30 02:41:13;;;;;;;6.18;5.57;;;11.50;99.90;;;11.11;100.00;96617.34;4999768;28;20029;-39
2023/08/30 02:43:39;;;;;;;5.88;5.28;;;11.50;99.90;;;11.12;100.00;96632.22;5001560;28;20061;-38
2023/08/30 02:46:05;;;;;;;6.60;5.90;;;11.50;99.90;;;11.10;100.00;96630.59;5001289;28;20038;-38
2023/08/30 02:48:34;;;;;;;6.32;5.68;;;11.50;99.90;;;11.11;100.00;96633.16;4995460;28;20038;-38
2023/08/30 02:50:59;;;;;;;6.35;5.75;;;11.50;99.90;;;11.10;100.00;96635.88;4998952;28;20033;-38
2023/08/30 02:53:25;;;;;;;7.90;6.22;;;11.50;99.90;;;11.05;100.00;96625.53;4996557;28;20042;-39
2023/08/30 02:55:51;;;;;;;7.03;6.32;;;11.50;99.90;;;11.05;100.00;96623.78;5000729;28;20297;-38
2023/08/30 02:58:17;;;;;;;6.82;6.00;;;11.50;99.90;;;11.06;100.00;96627.25;4994484;28;20038;-40
2023/08/30 03:00:42;;;;;;;7.57;6.78;;;11.50;99.90;;;11.01;100.00;96626.63;4997746;28;20060;-41
2023/08/30 03:03:08;;;;;;;6.85;6.25;;;11.50;99.90;;;11.07;100.00;96627.19;4996037;28;20577;-38
2023/08/30 03:05:34;;;;;;;8.60;6.32;;;11.50;99.90;;;11.06;100.00;96616.72;4992954;28;20758;-39
2023/08/30 03:07:59;;;;;;;6.55;5.95;;;11.50;99.90;;;11.12;100.00;96626.94;4998607;28;20599;-37
2023/08/30 03:10:25;;;;;;;7.63;6.93;;;11.50;99.90;;;11.14;100.00;96622.44;4995600;28;20053;-37
2023/08/30 03:12:52;;;;;;;12.30;6.72;;;11.50;99.90;;;11.17;100.00;96622.28;4998622;28;20518;-38
2023/08/30 03:15:17;;;;;;;9.15;6.88;;;11.60;99.90;;;11.23;100.00;96624.63;4994556;28;20030;-37
2023/08/30 03:17:43;;;;;;;8.30;6.93;;;11.60;99.90;;;11.27;100.00;96622.66;4995905;28;20084;-39
2023/08/30 03:20:10;;;;;;;7.97;7.07;;;11.70;99.90;;;11.33;100.00;96621.50;4999634;28;20034;-38
2023/08/30 03:22:35;;;;;;;8.10;6.53;;;11.70;99.90;;;11.31;100.00;96604.88;4998527;28;20041;-37
2023/08/30 03:25:03;;;;;;;8.60;7.65;;;11.70;99.90;;;11.39;100.00;96607.97;4991383;28;20428;-37
2023/08/30 03:27:29;;;;;;;6.50;5.90;;;11.80;99.90;;;11.43;100.00;96597.16;4992870;28;20041;-38
2023/08/30 03:29:56;;;;;;;6.95;6.25;;;11.80;99.90;;;11.43;100.00;96596.28;5002766;28;20048;-37
2023/08/30 03:32:21;;;;;;;8.13;6.85;;;11.90;99.90;;;11.53;100.00;96608.06;4991220;28;20034;-40
2023/08/30 03:34:48;;;;;;;7.13;6.28;;;11.90;99.90;;;11.51;100.00;96594.09;4993342;28;20396;-37
2023/08/30 03:37:17;;;;;;;7.05;6.35;;;11.90;99.90;;;11.60;100.00;96606.81;4993110;28;20331;-39
2023/08/30 03:39:42;;;;;;;7.65;6.80;;;12.00;99.90;;;11.56;100.00;96588.59;4997317;28;20036;-37
2023/08/30 03:42:09;;;;;;;7.75;6.88;;;12.00;99.90;;;11.60;100.00;96587.47;4994223;28;20037;-37
2023/08/30 03:44:35;;;;;;;7.50;6.80;;;12.10;99.90;;;11.72;100.00;96601.78;4992937;28;20052;-40
2023/08/30 03:47:00;;;;;;;7.50;6.80;;;12.10;99.90;;;11.73;100.00;96601.72;4999106;28;20041;-38
2023/08/30 03:49:26;;;;;;;9.02;6.90;;;12.10;99.90;;;11.75;100.00;96599.00;4991801;28;20034;-37
2023/08/30 03:51:52;;;;;;;7.70;6.88;;;12.10;99.90;;;11.72;100.00;96593.88;5001581;28;20108;-39
2023/08/30 03:54:17;;;;;;;10.60;7.45;;;12.20;99.90;;;11.78;100.00;96604.13;5000754;28;20032;-38
2023/08/30 03:56:44;;;;;;;7.75;6.95;;;12.20;99.90;;;11.79;100.00;96601.41;4998554;28;20030;-38
2023/08/30 03:59:10;;;;;;;7.78;7.00;;;12.20;99.90;;;11.78;100.00;96598.84;4995530;28;20534;-38
2023/08/30 04:01:36;;;;;;;9.98;7.20;;;12.20;99.90;;;11.81;100.00;96611.88;5014459;28;20042;-38
2023/08/30 04:04:02;;;;;;;8.52;7.00;;;12.20;99.90;;;11.80;100.00;96604.88;5001897;28;20041;-37
2023/08/30 04:06:28;;;;;;;9.05;6.97;;;12.20;99.90;;;11.75;100.00;96594.56;4993961;28;20084;-39
2023/08/30 04:08:53;;;;;;;7.45;6.75;;;12.20;99.90;;;11.80;100.00;96608.38;4989865;28;20056;-37
2023/08/30 04:11:19;;;;;;;8.30;6.75;;;12.20;99.90;;;11.80;100.00;96608.38;4994632;28;20026;-37
2023/08/30 04:13:45;;;;;;;6.88;5.95;;;12.20;99.90;;;11.82;100.00;96614.41;4997121;28;20397;-39
2023/08/30 04:16:10;;;;;;;7.85;6.72;;;12.20;99.90;;;11.83;100.00;96617.94;4994606;28;20445;-38
2023/08/30 04:18:36;;;;;;;7.57;6.88;;;12.20;99.90;;;11.83;100.00;96612.66;4990384;28;21380;-37
2023/08/30 04:21:02;;;;;;;7.65;6.82;;;12.20;99.90;;;11.84;100.00;96616.97;5001034;28;20122;-38
2023/08/30 04:23:29;;;;;;;7.32;6.63;;;12.20;99.90;;;11.85;100.00;96610.78;4993441;28;20132;-39
2023/08/30 04:25:55;;;;;;;7.70;6.90;;;12.30;99.90;;;11.85;100.00;96608.97;4994855;28;20069;-37
2023/08/30 04:28:21;;;;;;;7.50;6.80;;;12.30;99.90;;;11.79;100.00;96593.47;4996628;28;20450;-38
2023/08/30 04:30:47;;;;;;;8.02;7.22;;;12.30;99.90;;;11.90;100.00;96608.78;4997880;28;20141;-38
2023/08/30 04:33:13;;;;;;;8.43;7.53;;;12.30;99.90;;;11.91;100.00;96617.53;4991525;28;20134;-40
2023/08/30 04:35:39;;;;;;;8.55;7.70;;;12.30;99.90;;;11.85;100.00;96605.50;4991576;28;20136;-38
2023/08/30 04:38:04;;;;;;;9.98;8.95;;;12.30;99.90;;;11.90;100.00;96616.69;5003101;28;20036;-40
2023/08/30 04:40:32;;;;;;;10.50;8.77;;;12.30;99.90;;;11.80;100.00;96592.53;4982780;28;20038;-38
2023/08/30 04:42:58;;;;;;;9.82;8.90;;;12.30;99.90;;;11.91;100.00;96622.81;4993337;28;20042;-38
2023/08/30 04:45:24;;;;;;;9.32;8.27;;;12.30;99.90;;;11.91;100.00;96617.53;4987334;28;20575;-40
2023/08/30 04:47:50;;;;;;;8.40;7.60;;;12.30;99.90;;;11.92;100.00;96620.09;4996221;28;21694;-39
2023/08/30 04:50:17;;;;;;;9.02;8.13;;;12.30;99.90;;;11.95;100.00;96617.31;4992405;28;20030;-38
2023/08/30 04:52:42;;;;;;;8.57;7.25;;;12.30;99.90;;;11.98;100.00;96624.19;4998343;28;20026;-38
2023/08/30 04:55:09;;;;;;;7.63;6.93;;;12.40;99.90;;;11.98;100.00;96616.28;4994181;28;20327;-39
2023/08/30 04:57:34;;;;;;;8.32;7.35;;;12.40;99.90;;;12.01;100.00;96611.66;4994257;28;20030;-41
2023/08/30 05:00:04;;;;;;;8.40;7.47;;;12.40;99.90;;;11.87;100.00;96587.75;4997326;28;20030;-38
2023/08/30 05:02:30;;;;;;;8.60;7.70;;;12.40;99.90;;;12.05;100.00;96614.16;4994334;28;20034;-39
2023/08/30 05:04:56;;;;;;;8.52;7.53;;;12.40;99.90;;;12.07;100.00;96612.28;4991975;28;20498;-38
2023/08/30 05:07:21;;;;;;;9.48;8.18;;;12.50;99.90;;;12.03;100.00;96590.44;4993237;28;20045;-38
2023/08/30 05:09:47;;;;;;;8.65;7.68;;;12.50;99.90;;;12.13;100.00;96601.34;4993938;28;20033;-38
2023/08/30 05:12:13;;;;;;;7.43;6.72;;;12.50;99.90;;;12.17;100.00;96608.19;4989670;28;20026;-38
2023/08/30 05:14:40;;;;;;;8.05;7.28;;;12.50;99.90;;;12.20;100.00;96613.28;4996697;28;20476;-39
2023/08/30 05:17:06;;;;;;;9.80;8.80;;;12.60;99.90;;;12.22;100.00;96606.97;5002551;28;20112;-39
2023/08/30 05:19:32;;;;;;;8.70;7.78;;;12.60;99.90;;;12.26;100.00;96607.66;4998445;28;20124;-38
2023/08/30 05:21:57;;;;;;;8.50;7.70;;;12.60;99.90;;;12.29;100.00;96612.78;5003519;28;20732;-38
2023/08/30 05:24:23;;;;;;;7.90;7.18;;;12.60;99.90;;;12.23;100.00;96589.31;4995610;28;20038;-38
2023/08/30 05:26:49;;;;;;;8.90;8.00;;;12.70;99.90;;;12.27;100.00;96592.66;5005464;28;20064;-38
2023/08/30 05:29:15;;;;;;;8.35;7.45;;;12.70;99.90;;;12.39;100.00;96615.75;4999894;28;20028;-40
2023/08/30 05:31:41;;;;;;;8.65;7.75;;;12.80;99.90;;;12.27;100.00;96582.06;5003351;28;20026;-38
2023/08/30 05:34:07;;;;;;;8.57;7.68;;;12.80;99.90;;;12.45;100.00;96609.25;5004546;28;20040;-38
2023/08/30 05:36:33;;;;;;;11.40;9.63;;;12.80;99.90;;;12.47;100.00;96612.66;4999940;28;20393;-38
2023/08/30 05:38:58;;;;;;;9.68;8.05;;;12.80;99.90;;;12.48;100.00;96614.38;5004143;28;20044;-38
2023/08/30 05:41:24;;;;;;;7.82;7.03;;;12.80;99.90;;;12.51;100.00;96616.84;5002931;28;20025;-39
2023/08/30 05:43:51;;;;;;;7.03;6.38;;;12.90;99.90;;;12.55;100.00;96608.66;5003730;28;20511;-39
2023/08/30 05:46:17;;;;;;;7.75;7.05;;;12.90;99.90;;;12.54;100.00;96600.78;5001355;28;20060;-39
2023/08/30 05:48:43;;;;;;;7.97;7.18;;;12.90;99.90;;;12.61;100.00;96599.50;5000438;28;20588;-39
2023/08/30 05:51:08;;;;;;;7.95;6.68;;;13.00;99.90;;;12.65;100.00;96602.81;4996273;28;20026;-40
2023/08/30 05:53:34;;;;;;;8.20;7.28;;;13.00;99.90;;;12.71;100.00;96613.91;5000134;28;20444;-38
2023/08/30 05:56:00;;;;;;;7.57;6.55;;;13.10;99.90;;;12.74;100.00;96611.09;5002772;28;20029;-38
2023/08/30 05:58:25;;;;;;;8.45;6.78;;;13.10;99.90;;;12.74;100.00;96597.88;4996689;28;20359;-38
2023/08/30 06:00:51;;;;;;;7.38;6.00;;;13.20;99.90;;;12.73;100.00;96590.84;5000278;28;20470;-38
2023/08/30 06:03:17;;;;;;;7.32;6.63;;;13.30;99.90;;;12.84;100.00;96602.59;4996872;28;20080;-40
2023/08/30 06:05:43;;;;;;;7.47;6.20;;;13.30;99.90;;;12.92;100.00;96609.16;4997862;28;20032;-38
2023/08/30 06:08:09;;;;;;;7.50;6.38;;;13.30;99.90;;;12.98;100.00;96610.59;5006474;28;20393;-38
2023/08/30 06:10:36;;;;;;;7.25;5.93;;;13.40;99.90;;;13.04;100.00;96609.38;4994334;28;20084;-41
2023/08/30 06:13:02;;;;;;;6.18;5.57;;;13.40;99.90;;;13.11;100.00;96613.34;4999321;28;20057;-39
2023/08/30 06:15:28;;;;;;;7.22;6.40;;;13.50;99.90;;;13.17;100.00;96611.19;4997955;28;20550;-41
2023/08/30 06:17:54;;;;;;;6.55;5.72;;;13.50;99.90;;;13.23;100.00;96603.84;4992305;28;20033;-39
2023/08/30 06:20:20;;;;;;;6.22;4.97;;;13.70;99.90;;;13.34;100.00;96618.16;4995874;28;20045;-40
2023/08/30 06:22:45;;;;;;;7.72;5.88;;;13.70;99.90;;;13.38;100.00;96620.63;5003127;28;20028;-40
2023/08/30 06:25:11;;;;;;;5.65;5.00;;;13.80;99.90;;;13.46;100.00;96613.03;4997874;28;20816;-39
2023/08/30 06:27:43;;;;;;;10.65;7.15;;;13.90;99.90;;;13.51;100.00;96621.56;4997787;28;20030;-42
2023/08/30 06:30:10;;;;;;;6.68;6.05;;;14.00;99.90;;;13.60;100.00;96613.03;5001884;28;20049;-40
2023/08/30 06:32:36;;;;;;;7.40;6.18;;;14.00;99.90;;;13.67;100.00;96616.16;4991353;28;20297;-40
2023/08/30 06:35:02;;;;;;;7.32;6.63;;;14.10;99.90;;;13.74;100.00;96621.00;4990138;28;20060;-40
2023/08/30 06:37:28;;;;;;;7.97;6.50;;;14.20;99.90;;;13.81;100.00;96629.41;4990857;28;20044;-39
2023/08/30 06:39:54;;;;;;;8.35;6.60;;;14.20;99.90;;;13.81;100.00;96623.28;4999910;28;20034;-41
2023/08/30 06:42:19;;;;;;;6.88;6.03;;;14.20;99.90;;;13.90;100.00;96628.00;4991931;28;20342;-40
2023/08/30 06:44:45;;;;;;;6.03;5.43;;;14.30;99.90;;;13.97;100.00;96621.38;4999082;28;20026;-41
2023/08/30 06:47:11;;;;;;;5.53;4.72;;;14.30;99.90;;;13.99;100.00;96611.50;4994340;28;20108;-40
2023/08/30 06:49:36;;;;;;;5.03;4.50;;;14.40;99.90;;;14.10;100.00;96616.13;4999017;28;20022;-41
2023/08/30 06:52:03;;;;;;;5.22;4.35;;;14.50;99.90;;;14.17;100.00;96625.41;4997435;28;20041;-39
2023/08/30 06:54:33;;;;;;;5.07;4.45;;;14.50;99.90;;;14.17;100.00;96617.44;4994743;28;20038;-40
2023/08/30 06:57:00;;;;;;;4.35;3.95;;;14.60;99.90;;;14.27;100.00;96629.16;4995950;28;20029;-42
2023/08/30 06:59:27;;;;;;;4.07;3.67;;;14.60;99.90;;;14.27;100.00;96618.56;4989288;28;20037;-40
2023/08/30 07:01:53;;;;;;;5.05;4.30;;;14.70;99.90;;;14.27;100.00;96612.41;4984041;28;20041;-41
2023/08/30 07:04:19;;;;;;;5.57;4.35;;;14.80;99.90;;;14.40;100.00;96617.78;4991042;28;20033;-41
2023/08/30 07:06:45;;;;;;;4.45;4.05;;;14.80;99.90;;;14.32;100.00;96591.75;4996188;28;20087;-39
2023/08/30 07:09:11;;;;;;;4.35;3.42;;;14.80;99.90;;;14.49;100.00;96618.00;4999062;28;20124;-40
2023/08/30 07:11:38;;;;;;;4.35;3.60;;;14.90;99.90;;;14.53;100.00;96613.34;5002274;28;20450;-42
2023/08/30 07:14:04;;;;;;;5.32;4.32;;;14.90;99.90;;;14.52;100.00;96616.97;5000090;28;20030;-41
2023/08/30 07:16:31;;;;;;;4.07;3.45;;;14.90;99.90;;;14.53;100.00;96621.31;4999856;28;20038;-40
2023/08/30 07:18:58;;;;;;;5.55;3.60;;;14.90;99.90;;;14.54;100.00;96615.06;4996085;28;20045;-40
2023/08/30 07:21:23;;;;;;;4.00;3.42;;;14.90;99.90;;;14.53;100.00;96618.66;4992145;28;20033;-40
2023/08/30 07:23:49;;;;;;;4.25;3.50;;;14.90;99.90;;;14.55;100.00;96622.06;4997816;28;20398;-40
2023/08/30 07:26:15;;;;;;;4.15;3.28;;;14.90;99.90;;;14.57;100.00;96617.53;4995771;28;20041;-39
2023/08/30 07:28:41;;;;;;;4.82;3.67;;;14.90;99.90;;;14.61;100.00;96613.75;4999161;28;20154;-40
2023/08/30 07:31:07;;;;;;;3.60;3.20;;;14.90;99.90;;;14.61;100.00;96619.06;4995967;28;20061;-40
2023/08/30 07:33:33;;;;;;;5.47;3.80;;;15.00;99.90;;;14.62;100.00;96620.75;4994443;28;20109;-40
2023/08/30 07:35:58;;;;;;;4.10;3.55;;;15.00;99.90;;;14.57;100.00;96604.28;4991545;28;20037;-43
2023/08/30 07:38:24;;;;;;;4.63;3.58;;;15.00;99.90;;;14.68;100.00;96615.06;4998627;28;20638;-43
2023/08/30 07:40:50;;;;;;;4.70;3.75;;;15.00;99.90;;;14.67;100.00;96612.50;4988495;28;20514;-43
2023/08/30 07:43:16;;;;;;;4.28;3.67;;;15.10;99.90;;;14.78;100.00;96623.25;5003989;28;20104;-40
2023/08/30 07:45:41;;;;;;;4.70;3.22;;;15.10;99.90;;;14.85;100.00;96621.88;4999614;28;20038;-40
2023/08/30 07:48:07;;;;;;;6.03;4.35;;;15.20;99.90;;;14.86;100.00;96623.59;4999434;28;20065;-41
2023/08/30 07:50:33;;;;;;;4.53;3.72;;;15.20;99.90;;;14.92;100.00;96632.94;4991621;28;20044;-40
2023/08/30 07:52:58;;;;;;;5.18;3.55;;;15.30;99.90;;;14.95;100.00;96621.25;5002104;28;20033;-38
2023/08/30 07:55:24;;;;;;;5.93;5.20;;;15.40;99.90;;;14.96;100.00;96609.72;4990307;28;20391;-39
2023/08/30 07:57:50;;;;;;;7.15;5.10;;;15.50;99.90;;;15.09;100.00;96618.53;4997522;28;20524;-40
2023/08/30 08:00:16;;;;;;;5.32;4.65;;;15.50;99.90;;;15.12;100.00;96610.38;4997595;28;20017;-38
2023/08/30 08:02:41;;;;;;;6.93;4.80;;;15.60;99.90;;;15.18;100.00;96625.91;4999531;28;20069;-40
2023/08/30 08:05:08;;;;;;;7.72;5.45;;;15.60;99.90;;;15.31;100.00;96623.25;5000904;28;20044;-40
2023/08/30 08:07:33;;;;;;;7.85;4.80;;;15.70;99.90;;;15.44;100.00;96612.63;4995572;28;20457;-40
2023/08/30 08:09:59;;;;;;;5.35;4.80;;;15.80;99.90;;;15.58;100.00;96623.16;4988526;28;20026;-40
2023/08/30 08:12:27;;;;;;;6.57;4.72;;;15.90;99.90;;;15.63;100.00;96621.03;4991221;28;20033;-38
2023/08/30 08:14:52;;;;;;;5.45;4.47;;;16.00;99.90;;;15.74;100.00;96617.66;4988932;28;20033;-38
2023/08/30 08:17:18;;;;;;;8.18;4.60;;;16.20;99.90;;;15.88;100.00;96618.47;4990518;28;20056;-39
2023/08/30 08:19:44;;;;;;;6.38;4.22;;;16.20;99.90;;;15.97;100.00;96623.13;4993821;28;20041;-39
2023/08/30 08:22:10;;;;;;;4.68;4.05;;;16.30;99.90;;;16.09;100.00;96622.28;4983254;28;20057;-39
2023/08/30 08:24:35;;;;;;;4.63;3.67;;;16.40;99.90;;;16.17;100.00;96619.09;4983412;28;20644;-39
2023/08/30 08:27:01;;;;;;;8.32;4.97;;;16.50;99.90;;;16.19;100.00;96618.00;4972855;28;20029;-40
2023/08/30 08:29:28;;;;;;;4.32;3.78;;;16.60;99.90;;;16.22;100.00;96620.44;4981801;28;20509;-40
2023/08/30 08:31:54;;;;;;;5.13;4.13;;;16.60;99.90;;;16.28;100.00;96626.28;4987629;28;22447;-37
2023/08/30 08:34:20;;;;;;;6.28;4.30;;;16.60;99.90;;;16.17;100.00;96605.78;4988415;28;20030;-38
2023/08/30 08:36:45;;;;;;;6.55;4.20;;;16.60;99.90;;;16.29;100.00;96617.34;4986650;28;20573;-40
2023/08/30 08:39:14;;;;;;;4.35;3.45;;;16.60;99.90;;;16.42;100.00;96626.13;4994240;28;20042;-39
2023/08/30 08:41:42;;;;;;;3.63;3.05;;;16.70;99.90;;;16.42;100.00;96608.34;4979858;28;20095;-39
2023/08/30 08:44:09;;;;;;;4.93;3.75;;;16.90;99.90;;;16.52;100.00;96621.81;4983887;28;20030;-39
2023/08/30 08:46:40;;;;;;;3.83;2.92;;;16.90;99.90;;;16.67;100.00;96621.66;4981050;28;20049;-38
2023/08/30 08:49:16;;;;;;;6.53;4.03;;;17.00;99.90;;;16.74;100.00;96623.78;4986308;28;20029;-37
2023/08/30 08:51:44;;;;;;;5.70;3.88;;;17.10;99.90;;;16.86;100.00;96615.84;4990997;28;20033;-37
2023/08/30 08:54:11;;;;;;;5.07;3.40;;;17.20;99.90;;;16.92;100.00;96616.25;4989382;28;20038;-37
2023/08/30 08:56:38;;;;;;;4.90;3.70;;;17.30;99.90;;;16.94;100.00;96603.66;4981696;28;20160;-38
2023/08/30 08:59:06;;;;;;;4.00;3.60;;;17.30;99.90;;;17.24;100.00;96618.28;4989501;28;20383;-39
2023/08/30 09:01:35;;;;;;;4.30;3.20;;;17.50;99.90;;;17.46;100.00;96619.28;4984658;28;20387;-39
2023/08/30 09:04:08;;;;;;;3.85;3.03;;;17.80;99.90;;;17.66;100.00;96617.78;4986737;28;20034;-40
2023/08/30 09:06:35;;;;;;;3.65;2.90;;;18.00;99.90;;;17.87;100.00;96615.25;4989951;28;20589;-40
2023/08/30 09:09:03;;;;;;;4.32;3.20;;;18.20;99.90;;;17.93;100.00;96620.13;4988938;28;20120;-37
2023/08/30 09:11:29;;;;;;;2.58;2.22;;;18.30;99.90;;;17.97;100.00;96610.06;4992266;28;20037;-38
2023/08/30 09:13:55;;;;;;;3.70;2.63;;;18.40;99.90;;;17.97;100.00;96592.22;4990434;28;20037;-40
2023/08/30 09:16:21;;;;;;;3.25;2.40;;;18.40;99.90;;;18.20;100.00;96616.22;4982788;28;20092;-38
2023/08/30 09:19:07;;;;;;;2.97;2.67;;;18.60;99.90;;;18.32;100.00;96623.22;4979918;28;20029;-38
2023/08/30 09:21:33;;;;;;;3.50;2.20;;;18.70;99.90;;;18.35;100.00;96617.63;4982405;28;20034;-39
2023/08/30 09:24:03;;;;;;;2.25;2.03;;;18.80;99.90;;;18.55;100.00;96636.53;4995750;28;20026;-39
2023/08/30 09:26:31;;;;;;;4.95;2.33;;;18.90;99.90;;;18.54;100.00;96626.81;4991930;28;20037;-38
2023/08/30 09:29:05;;;;;;;2.63;2.03;;;18.90;99.90;;;18.73;100.00;96631.50;4985803;28;20034;-41
2023/08/30 09:31:40;;;;;;;3.92;2.35;;;19.00;99.90;;;18.61;100.00;96626.22;4987053;28;20051;-38
2023/08/30 09:34:06;;;;;;;2.78;1.70;;;19.00;99.90;;;18.70;100.00;96621.94;4982377;28;20606;-39
2023/08/30 09:36:42;;;;;;;1.98;1.80;;;18.90;99.90;;;18.63;100.00;96618.06;4990844;28;20096;-38
2023/08/30 09:39:13;;;;;;;2.70;2.20;;;18.90;99.90;;;18.64;100.00;96612.59;4990002;28;20026;-41
2023/08/30 09:41:44;;;;;;;3.33;2.05;;;18.90;99.90;;;18.63;100.00;96615.41;4987328;28;20397;-37
2023/08/30 09:44:11;;;;;;;2.17;1.90;;;18.80;99.90;;;18.57;100.00;96614.06;4991342;28;20182;-41
2023/08/30 09:46:52;;;;;;;3.42;2.20;;;18.80;99.90;;;18.39;100.00;96605.72;4987883;28;20087;-38
2023/08/30 09:49:45;;;;;;;2.72;1.90;;;18.70;99.90;;;18.34;100.00;96612.41;5000337;28;20122;-37
2023/08/30 09:52:16;;;;;;;1.80;1.70;;;18.70;99.90;;;18.29;100.00;96612.81;4975940;28;20034;-38
2023/08/30 09:54:43;;;;;;;3.10;2.00;;;18.50;99.90;;;18.33;100.00;96611.56;5007428;28;20057;-40
2023/08/30 09:57:10;;;;;;;2.60;2.00;;;18.50;99.90;;;18.13;100.00;96590.00;4999839;28;20268;-39
2023/08/30 09:59:37;;;;;;;4.53;1.60;;;18.60;99.90;;;18.28;100.00;96616.44;4997868;28;20049;-39
2023/08/30 10:02:05;;;;;;;3.42;1.60;;;18.50;99.90;;;18.36;100.00;96610.47;5008529;28;20030;-38
2023/08/30 10:04:32;;;;;;;2.15;1.30;;;18.60;99.90;;;18.28;100.00;96603.09;4987758;28;23612;-38
2023/08/30 10:06:59;;;;;;;1.35;1.20;;;18.60;99.90;;;18.36;100.00;96595.31;4996059;28;20044;-38
2023/08/30 10:09:25;;;;;;;3.13;1.63;;;18.60;99.90;;;18.55;100.00;96607.16;4984191;28;20036;-39
2023/08/30 10:11:51;;;;;;;3.25;1.40;;;18.70;99.90;;;18.57;100.00;96602.53;4992287;28;20050;-39